sensor_id;sensor_type;location;lat;lon;timestamp;temperature;humidity
3408;DHT22;1717;50.240;8.406;2022-08-19T00:00:50;22.30;82.90
3408;DHT22;1717;50.240;8.406;2022-08-19T00:03:17;22.30;82.90
3408;DHT22;1717;50.240;8.406;2022-08-19T00:05:44;22.30;82.90
3408;DHT22;1717;50.240;8.406;2022-08-19T00:08:11;22.40;83.00
3408;DHT22;1717;50.240;8.406;2022-08-19T00:10:39;22.30;82.90
3408;DHT22;1717;50.240;8.406;2022-08-19T00:13:06;22.30;83.00
3408;DHT22;1717;50.240;8.406;2022-08-19T00:15:33;22.30;83.00
3408;DHT22;1717;50.240;8.406;2022-08-19T00:18:00;22.30;83.00
3408;DHT22;1717;50.240;8.406;2022-08-19T00:20:27;22.40;83.20
3408;DHT22;1717;50.240;8.406;2022-08-19T00:22:54;22.20;82.90
3408;DHT22;1717;50.240;8.406;2022-08-19T00:25:21;22.30;83.10
3408;DHT22;1717;50.240;8.406;2022-08-19T00:27:49;22.40;83.30
3408;DHT22;1717;50.240;8.406;2022-08-19T00:30:16;22.40;83.30
3408;DHT22;1717;50.240;8.406;2022-08-19T00:32:43;22.30;83.30
3408;DHT22;1717;50.240;8.406;2022-08-19T00:35:10;22.40;83.30
3408;DHT22;1717;50.240;8.406;2022-08-19T00:37:38;22.30;83.40
3408;DHT22;1717;50.240;8.406;2022-08-19T00:40:07;22.30;83.50
3408;DHT22;1717;50.240;8.406;2022-08-19T00:42:33;22.30;83.50
3408;DHT22;1717;50.240;8.406;2022-08-19T00:45:02;22.30;83.70
3408;DHT22;1717;50.240;8.406;2022-08-19T00:47:35;22.30;84.00
3408;DHT22;1717;50.240;8.406;2022-08-19T00:50:02;22.30;84.00
3408;DHT22;1717;50.240;8.406;2022-08-19T00:52:32;22.30;84.00
3408;DHT22;1717;50.240;8.406;2022-08-19T00:55:00;22.30;84.10
3408;DHT22;1717;50.240;8.406;2022-08-19T00:57:32;22.30;84.20
3408;DHT22;1717;50.240;8.406;2022-08-19T01:00:06;22.20;84.10
3408;DHT22;1717;50.240;8.406;2022-08-19T01:02:33;22.20;84.20
3408;DHT22;1717;50.240;8.406;2022-08-19T01:05:02;22.20;84.40
3408;DHT22;1717;50.240;8.406;2022-08-19T01:07:29;22.20;84.50
3408;DHT22;1717;50.240;8.406;2022-08-19T01:09:57;22.20;84.50
3408;DHT22;1717;50.240;8.406;2022-08-19T01:12:24;22.20;84.60
3408;DHT22;1717;50.240;8.406;2022-08-19T01:14:51;22.20;84.70
3408;DHT22;1717;50.240;8.406;2022-08-19T01:17:20;22.30;84.90
3408;DHT22;1717;50.240;8.406;2022-08-19T01:19:47;22.20;84.90
3408;DHT22;1717;50.240;8.406;2022-08-19T01:22:18;22.20;84.80
3408;DHT22;1717;50.240;8.406;2022-08-19T01:24:48;22.20;84.90
3408;DHT22;1717;50.240;8.406;2022-08-19T01:27:16;22.30;85.00
3408;DHT22;1717;50.240;8.406;2022-08-19T01:29:44;22.20;85.10
3408;DHT22;1717;50.240;8.406;2022-08-19T01:32:12;22.20;85.10
3408;DHT22;1717;50.240;8.406;2022-08-19T01:34:40;22.20;86.10
3408;DHT22;1717;50.240;8.406;2022-08-19T01:37:13;22.10;85.20
3408;DHT22;1717;50.240;8.406;2022-08-19T01:39:41;22.10;85.30
3408;DHT22;1717;50.240;8.406;2022-08-19T01:42:09;22.10;85.60
3408;DHT22;1717;50.240;8.406;2022-08-19T01:44:38;22.10;85.90
3408;DHT22;1717;50.240;8.406;2022-08-19T01:47:06;22.00;86.10
3408;DHT22;1717;50.240;8.406;2022-08-19T01:49:35;22.00;86.30
3408;DHT22;1717;50.240;8.406;2022-08-19T01:52:03;22.00;86.50
3408;DHT22;1717;50.240;8.406;2022-08-19T01:54:30;22.10;86.80
3408;DHT22;1717;50.240;8.406;2022-08-19T01:57:01;22.00;86.70
3408;DHT22;1717;50.240;8.406;2022-08-19T01:59:31;22.00;86.70
3408;DHT22;1717;50.240;8.406;2022-08-19T02:01:59;22.00;86.90
3408;DHT22;1717;50.240;8.406;2022-08-19T02:04:26;22.00;86.70
3408;DHT22;1717;50.240;8.406;2022-08-19T02:06:53;22.00;86.80
3408;DHT22;1717;50.240;8.406;2022-08-19T02:09:20;22.00;86.90
3408;DHT22;1717;50.240;8.406;2022-08-19T02:11:47;21.90;86.80
3408;DHT22;1717;50.240;8.406;2022-08-19T02:14:13;21.90;86.80
3408;DHT22;1717;50.240;8.406;2022-08-19T02:16:42;21.90;87.10
3408;DHT22;1717;50.240;8.406;2022-08-19T02:19:08;21.80;87.20
3408;DHT22;1717;50.240;8.406;2022-08-19T02:21:36;21.80;87.30
3408;DHT22;1717;50.240;8.406;2022-08-19T02:24:04;21.80;87.40
3408;DHT22;1717;50.240;8.406;2022-08-19T02:26:31;21.80;87.50
3408;DHT22;1717;50.240;8.406;2022-08-19T02:28:59;21.80;88.00
3408;DHT22;1717;50.240;8.406;2022-08-19T02:31:26;21.70;88.10
3408;DHT22;1717;50.240;8.406;2022-08-19T02:33:56;21.70;88.40
3408;DHT22;1717;50.240;8.406;2022-08-19T02:36:24;21.60;88.40
3408;DHT22;1717;50.240;8.406;2022-08-19T02:38:51;21.60;88.70
3408;DHT22;1717;50.240;8.406;2022-08-19T02:41:20;21.80;89.00
3408;DHT22;1717;50.240;8.406;2022-08-19T02:43:47;21.60;88.80
3408;DHT22;1717;50.240;8.406;2022-08-19T02:46:16;21.60;88.90
3408;DHT22;1717;50.240;8.406;2022-08-19T02:48:47;21.60;89.20
3408;DHT22;1717;50.240;8.406;2022-08-19T02:51:20;21.60;89.20
3408;DHT22;1717;50.240;8.406;2022-08-19T02:53:47;21.50;89.20
3408;DHT22;1717;50.240;8.406;2022-08-19T02:56:14;21.50;89.20
3408;DHT22;1717;50.240;8.406;2022-08-19T02:58:42;21.50;89.50
3408;DHT22;1717;50.240;8.406;2022-08-19T03:01:10;21.50;89.50
3408;DHT22;1717;50.240;8.406;2022-08-19T03:03:38;21.40;89.70
3408;DHT22;1717;50.240;8.406;2022-08-19T03:06:10;21.40;89.70
3408;DHT22;1717;50.240;8.406;2022-08-19T03:08:40;21.30;89.70
3408;DHT22;1717;50.240;8.406;2022-08-19T03:11:13;21.30;90.00
3408;DHT22;1717;50.240;8.406;2022-08-19T03:13:40;21.30;90.00
3408;DHT22;1717;50.240;8.406;2022-08-19T03:16:09;21.20;90.10
3408;DHT22;1717;50.240;8.406;2022-08-19T03:18:36;21.10;90.30
3408;DHT22;1717;50.240;8.406;2022-08-19T03:21:04;21.10;90.50
3408;DHT22;1717;50.240;8.406;2022-08-19T03:23:31;21.00;90.60
3408;DHT22;1717;50.240;8.406;2022-08-19T03:26:03;21.00;90.60
3408;DHT22;1717;50.240;8.406;2022-08-19T03:28:31;21.00;90.70
3408;DHT22;1717;50.240;8.406;2022-08-19T03:31:00;21.00;90.90
3408;DHT22;1717;50.240;8.406;2022-08-19T03:33:28;20.90;91.00
3408;DHT22;1717;50.240;8.406;2022-08-19T03:36:04;20.90;91.20
3408;DHT22;1717;50.240;8.406;2022-08-19T03:38:33;20.90;91.30
3408;DHT22;1717;50.240;8.406;2022-08-19T03:41:05;20.80;91.40
3408;DHT22;1717;50.240;8.406;2022-08-19T03:43:34;20.80;91.40
3408;DHT22;1717;50.240;8.406;2022-08-19T03:46:03;20.80;91.60
3408;DHT22;1717;50.240;8.406;2022-08-19T03:48:31;20.80;91.70
3408;DHT22;1717;50.240;8.406;2022-08-19T03:50:59;20.70;91.90
3408;DHT22;1717;50.240;8.406;2022-08-19T03:53:26;20.60;92.00
3408;DHT22;1717;50.240;8.406;2022-08-19T03:55:54;20.60;92.30
3408;DHT22;1717;50.240;8.406;2022-08-19T03:58:23;20.60;92.40
3408;DHT22;1717;50.240;8.406;2022-08-19T04:00:50;20.50;92.50
3408;DHT22;1717;50.240;8.406;2022-08-19T04:03:17;20.50;92.60
3408;DHT22;1717;50.240;8.406;2022-08-19T04:05:45;20.50;92.70
3408;DHT22;1717;50.240;8.406;2022-08-19T04:08:14;20.50;92.70
3408;DHT22;1717;50.240;8.406;2022-08-19T04:10:46;20.40;93.00
3408;DHT22;1717;50.240;8.406;2022-08-19T04:13:13;20.40;92.80
3408;DHT22;1717;50.240;8.406;2022-08-19T04:15:42;20.40;92.90
3408;DHT22;1717;50.240;8.406;2022-08-19T04:18:12;20.40;93.10
3408;DHT22;1717;50.240;8.406;2022-08-19T04:20:42;20.40;93.20
3408;DHT22;1717;50.240;8.406;2022-08-19T04:23:10;20.40;93.20
3408;DHT22;1717;50.240;8.406;2022-08-19T04:25:38;20.40;93.30
3408;DHT22;1717;50.240;8.406;2022-08-19T04:28:07;20.40;93.30
3408;DHT22;1717;50.240;8.406;2022-08-19T04:30:41;20.40;93.40
3408;DHT22;1717;50.240;8.406;2022-08-19T04:33:09;20.30;93.50
3408;DHT22;1717;50.240;8.406;2022-08-19T04:35:37;20.30;93.50
3408;DHT22;1717;50.240;8.406;2022-08-19T04:38:05;20.30;93.60
3408;DHT22;1717;50.240;8.406;2022-08-19T04:40:32;20.30;93.60
3408;DHT22;1717;50.240;8.406;2022-08-19T04:43:16;20.30;93.70
3408;DHT22;1717;50.240;8.406;2022-08-19T04:45:45;20.30;94.10
3408;DHT22;1717;50.240;8.406;2022-08-19T04:48:12;20.30;93.80
3408;DHT22;1717;50.240;8.406;2022-08-19T04:50:41;20.30;93.80
3408;DHT22;1717;50.240;8.406;2022-08-19T04:53:08;20.20;93.80
3408;DHT22;1717;50.240;8.406;2022-08-19T04:55:39;20.20;93.80
3408;DHT22;1717;50.240;8.406;2022-08-19T04:58:06;20.20;94.10
3408;DHT22;1717;50.240;8.406;2022-08-19T05:00:33;20.20;94.20
3408;DHT22;1717;50.240;8.406;2022-08-19T05:03:01;20.20;94.30
3408;DHT22;1717;50.240;8.406;2022-08-19T05:05:28;20.10;94.40
3408;DHT22;1717;50.240;8.406;2022-08-19T05:07:57;20.10;94.40
3408;DHT22;1717;50.240;8.406;2022-08-19T05:10:24;20.10;94.70
3408;DHT22;1717;50.240;8.406;2022-08-19T05:12:51;20.10;94.70
3408;DHT22;1717;50.240;8.406;2022-08-19T05:15:18;20.10;94.80
3408;DHT22;1717;50.240;8.406;2022-08-19T05:17:45;20.10;95.00
3408;DHT22;1717;50.240;8.406;2022-08-19T05:20:27;20.10;95.10
3408;DHT22;1717;50.240;8.406;2022-08-19T05:23:12;20.20;95.00
3408;DHT22;1717;50.240;8.406;2022-08-19T05:25:43;20.20;94.90
3408;DHT22;1717;50.240;8.406;2022-08-19T05:28:09;20.20;94.90
3408;DHT22;1717;50.240;8.406;2022-08-19T05:30:36;20.20;95.00
3408;DHT22;1717;50.240;8.406;2022-08-19T05:33:03;20.30;95.00
3408;DHT22;1717;50.240;8.406;2022-08-19T05:35:31;20.30;94.90
3408;DHT22;1717;50.240;8.406;2022-08-19T05:37:58;20.30;95.10
3408;DHT22;1717;50.240;8.406;2022-08-19T05:40:25;20.30;95.20
3408;DHT22;1717;50.240;8.406;2022-08-19T05:42:52;20.30;95.20
3408;DHT22;1717;50.240;8.406;2022-08-19T05:45:19;20.30;95.20
3408;DHT22;1717;50.240;8.406;2022-08-19T05:47:47;20.30;95.30
3408;DHT22;1717;50.240;8.406;2022-08-19T05:50:14;20.40;95.50
3408;DHT22;1717;50.240;8.406;2022-08-19T05:52:44;20.40;95.60
3408;DHT22;1717;50.240;8.406;2022-08-19T05:55:11;20.40;95.70
3408;DHT22;1717;50.240;8.406;2022-08-19T05:57:39;20.40;95.60
3408;DHT22;1717;50.240;8.406;2022-08-19T06:00:07;20.50;95.70
3408;DHT22;1717;50.240;8.406;2022-08-19T06:02:35;20.50;95.70
3408;DHT22;1717;50.240;8.406;2022-08-19T06:05:03;20.50;95.80
3408;DHT22;1717;50.240;8.406;2022-08-19T06:07:31;20.60;95.90
3408;DHT22;1717;50.240;8.406;2022-08-19T06:09:59;20.60;95.90
3408;DHT22;1717;50.240;8.406;2022-08-19T06:12:26;20.70;95.90
3408;DHT22;1717;50.240;8.406;2022-08-19T06:14:57;20.70;95.90
3408;DHT22;1717;50.240;8.406;2022-08-19T06:17:24;20.80;95.90
3408;DHT22;1717;50.240;8.406;2022-08-19T06:19:51;20.80;95.90
3408;DHT22;1717;50.240;8.406;2022-08-19T06:22:18;20.80;95.90
3408;DHT22;1717;50.240;8.406;2022-08-19T06:24:45;20.90;95.90
3408;DHT22;1717;50.240;8.406;2022-08-19T06:27:13;20.90;96.00
3408;DHT22;1717;50.240;8.406;2022-08-19T06:29:41;21.00;95.90
3408;DHT22;1717;50.240;8.406;2022-08-19T06:32:08;21.00;96.00
3408;DHT22;1717;50.240;8.406;2022-08-19T06:34:36;21.10;95.90
3408;DHT22;1717;50.240;8.406;2022-08-19T06:37:03;21.10;95.70
3408;DHT22;1717;50.240;8.406;2022-08-19T06:39:35;21.20;95.90
3408;DHT22;1717;50.240;8.406;2022-08-19T06:42:04;21.30;96.20
3408;DHT22;1717;50.240;8.406;2022-08-19T06:44:37;21.30;95.80
3408;DHT22;1717;50.240;8.406;2022-08-19T06:47:06;21.30;95.80
3408;DHT22;1717;50.240;8.406;2022-08-19T06:49:34;21.40;95.80
3408;DHT22;1717;50.240;8.406;2022-08-19T06:52:02;21.40;95.80
3408;DHT22;1717;50.240;8.406;2022-08-19T06:54:30;21.50;95.80
3408;DHT22;1717;50.240;8.406;2022-08-19T06:56:58;21.60;95.70
3408;DHT22;1717;50.240;8.406;2022-08-19T06:59:29;21.60;95.60
3408;DHT22;1717;50.240;8.406;2022-08-19T07:02:00;21.70;95.50
3408;DHT22;1717;50.240;8.406;2022-08-19T07:04:29;21.70;95.40
3408;DHT22;1717;50.240;8.406;2022-08-19T07:06:58;21.80;95.30
3408;DHT22;1717;50.240;8.406;2022-08-19T07:09:26;21.90;95.40
3408;DHT22;1717;50.240;8.406;2022-08-19T07:11:54;22.00;95.30
3408;DHT22;1717;50.240;8.406;2022-08-19T07:14:22;22.00;95.50
3408;DHT22;1717;50.240;8.406;2022-08-19T07:16:52;22.10;94.90
3408;DHT22;1717;50.240;8.406;2022-08-19T07:19:23;22.20;94.90
3408;DHT22;1717;50.240;8.406;2022-08-19T07:21:51;22.20;94.60
3408;DHT22;1717;50.240;8.406;2022-08-19T07:24:20;22.30;94.50
3408;DHT22;1717;50.240;8.406;2022-08-19T07:26:50;22.40;94.40
3408;DHT22;1717;50.240;8.406;2022-08-19T07:29:18;22.50;94.10
3408;DHT22;1717;50.240;8.406;2022-08-19T07:31:49;22.60;93.90
3408;DHT22;1717;50.240;8.406;2022-08-19T07:34:16;22.60;93.60
3408;DHT22;1717;50.240;8.406;2022-08-19T07:36:45;22.70;93.40
3408;DHT22;1717;50.240;8.406;2022-08-19T07:39:20;22.70;93.30
3408;DHT22;1717;50.240;8.406;2022-08-19T07:41:48;22.80;93.10
3408;DHT22;1717;50.240;8.406;2022-08-19T07:44:16;22.90;92.80
3408;DHT22;1717;50.240;8.406;2022-08-19T07:46:47;22.90;92.60
3408;DHT22;1717;50.240;8.406;2022-08-19T07:49:14;22.90;92.50
3408;DHT22;1717;50.240;8.406;2022-08-19T07:51:47;23.00;92.50
3408;DHT22;1717;50.240;8.406;2022-08-19T07:54:14;23.00;92.30
3408;DHT22;1717;50.240;8.406;2022-08-19T07:56:41;23.10;92.30
3408;DHT22;1717;50.240;8.406;2022-08-19T07:59:09;23.10;92.10
3408;DHT22;1717;50.240;8.406;2022-08-19T08:01:36;23.20;92.10
3408;DHT22;1717;50.240;8.406;2022-08-19T08:04:06;23.20;92.00
3408;DHT22;1717;50.240;8.406;2022-08-19T08:06:53;23.30;92.00
3408;DHT22;1717;50.240;8.406;2022-08-19T08:09:44;23.30;91.90
3408;DHT22;1717;50.240;8.406;2022-08-19T08:12:14;23.40;91.90
3408;DHT22;1717;50.240;8.406;2022-08-19T08:14:45;23.40;91.70
3408;DHT22;1717;50.240;8.406;2022-08-19T08:17:13;23.50;91.70
3408;DHT22;1717;50.240;8.406;2022-08-19T08:19:41;23.50;91.50
3408;DHT22;1717;50.240;8.406;2022-08-19T08:22:11;23.60;91.40
3408;DHT22;1717;50.240;8.406;2022-08-19T08:25:02;23.60;91.20
3408;DHT22;1717;50.240;8.406;2022-08-19T08:27:29;23.70;91.30
3408;DHT22;1717;50.240;8.406;2022-08-19T08:29:56;23.70;91.20
3408;DHT22;1717;50.240;8.406;2022-08-19T08:32:24;23.70;91.10
3408;DHT22;1717;50.240;8.406;2022-08-19T08:34:52;23.80;91.40
3408;DHT22;1717;50.240;8.406;2022-08-19T08:37:20;23.80;90.90
3408;DHT22;1717;50.240;8.406;2022-08-19T08:39:47;23.90;90.70
3408;DHT22;1717;50.240;8.406;2022-08-19T08:42:25;23.90;90.60
3408;DHT22;1717;50.240;8.406;2022-08-19T08:44:58;24.00;90.50
3408;DHT22;1717;50.240;8.406;2022-08-19T08:47:26;24.00;90.80
3408;DHT22;1717;50.240;8.406;2022-08-19T08:49:58;24.00;90.30
3408;DHT22;1717;50.240;8.406;2022-08-19T08:52:29;24.00;90.10
3408;DHT22;1717;50.240;8.406;2022-08-19T08:54:59;24.10;90.00
3408;DHT22;1717;50.240;8.406;2022-08-19T08:57:29;24.10;89.90
3408;DHT22;1717;50.240;8.406;2022-08-19T08:59:58;24.20;89.80
3408;DHT22;1717;50.240;8.406;2022-08-19T09:02:27;24.20;89.50
3408;DHT22;1717;50.240;8.406;2022-08-19T09:04:54;24.20;89.20
3408;DHT22;1717;50.240;8.406;2022-08-19T09:07:29;24.20;89.00
3408;DHT22;1717;50.240;8.406;2022-08-19T09:10:05;24.30;88.80
3408;DHT22;1717;50.240;8.406;2022-08-19T09:12:44;24.40;88.70
3408;DHT22;1717;50.240;8.406;2022-08-19T09:15:20;24.40;88.50
3408;DHT22;1717;50.240;8.406;2022-08-19T09:17:49;24.40;88.10
3408;DHT22;1717;50.240;8.406;2022-08-19T09:20:17;24.50;87.90
3408;DHT22;1717;50.240;8.406;2022-08-19T09:22:46;24.50;87.50
3408;DHT22;1717;50.240;8.406;2022-08-19T09:25:19;24.60;87.40
3408;DHT22;1717;50.240;8.406;2022-08-19T09:27:47;24.60;87.20
3408;DHT22;1717;50.240;8.406;2022-08-19T09:30:17;24.60;86.90
3408;DHT22;1717;50.240;8.406;2022-08-19T09:32:45;24.70;86.60
3408;DHT22;1717;50.240;8.406;2022-08-19T09:35:13;24.80;86.30
3408;DHT22;1717;50.240;8.406;2022-08-19T09:37:40;24.90;86.10
3408;DHT22;1717;50.240;8.406;2022-08-19T09:40:11;24.90;85.60
3408;DHT22;1717;50.240;8.406;2022-08-19T09:42:38;25.00;85.20
3408;DHT22;1717;50.240;8.406;2022-08-19T09:45:07;25.10;84.80
3408;DHT22;1717;50.240;8.406;2022-08-19T09:47:34;25.10;84.50
3408;DHT22;1717;50.240;8.406;2022-08-19T09:50:04;25.10;84.20
3408;DHT22;1717;50.240;8.406;2022-08-19T09:52:31;25.20;83.90
3408;DHT22;1717;50.240;8.406;2022-08-19T09:54:58;25.20;83.40
3408;DHT22;1717;50.240;8.406;2022-08-19T09:57:26;25.20;84.00
3408;DHT22;1717;50.240;8.406;2022-08-19T09:59:53;25.20;82.40
3408;DHT22;1717;50.240;8.406;2022-08-19T10:02:20;25.20;82.00
3408;DHT22;1717;50.240;8.406;2022-08-19T10:04:46;25.30;81.90
3408;DHT22;1717;50.240;8.406;2022-08-19T10:07:31;25.30;80.90
3408;DHT22;1717;50.240;8.406;2022-08-19T10:09:58;25.30;80.90
3408;DHT22;1717;50.240;8.406;2022-08-19T10:12:26;25.40;80.90
3408;DHT22;1717;50.240;8.406;2022-08-19T10:14:53;25.40;80.40
3408;DHT22;1717;50.240;8.406;2022-08-19T10:17:21;25.40;80.10
3408;DHT22;1717;50.240;8.406;2022-08-19T10:19:48;25.50;80.10
3408;DHT22;1717;50.240;8.406;2022-08-19T10:22:14;25.60;79.70
3408;DHT22;1717;50.240;8.406;2022-08-19T10:24:41;25.60;78.50
3408;DHT22;1717;50.240;8.406;2022-08-19T10:27:08;25.60;77.40
3408;DHT22;1717;50.240;8.406;2022-08-19T10:29:36;25.60;77.30
3408;DHT22;1717;50.240;8.406;2022-08-19T10:32:05;25.60;76.70
3408;DHT22;1717;50.240;8.406;2022-08-19T10:34:33;25.60;76.40
3408;DHT22;1717;50.240;8.406;2022-08-19T10:37:00;25.70;75.00
3408;DHT22;1717;50.240;8.406;2022-08-19T10:39:28;25.70;75.30
3408;DHT22;1717;50.240;8.406;2022-08-19T10:41:55;25.70;74.50
3408;DHT22;1717;50.240;8.406;2022-08-19T10:44:22;25.70;73.10
3408;DHT22;1717;50.240;8.406;2022-08-19T10:46:51;25.70;73.10
3408;DHT22;1717;50.240;8.406;2022-08-19T10:49:18;25.80;72.80
3408;DHT22;1717;50.240;8.406;2022-08-19T10:51:46;25.70;72.60
3408;DHT22;1717;50.240;8.406;2022-08-19T10:54:30;25.80;72.60
3408;DHT22;1717;50.240;8.406;2022-08-19T10:57:13;25.80;71.70
3408;DHT22;1717;50.240;8.406;2022-08-19T10:59:40;25.90;72.00
3408;DHT22;1717;50.240;8.406;2022-08-19T11:02:10;25.90;71.60
3408;DHT22;1717;50.240;8.406;2022-08-19T11:04:38;25.90;71.70
3408;DHT22;1717;50.240;8.406;2022-08-19T11:07:06;26.00;71.60
3408;DHT22;1717;50.240;8.406;2022-08-19T11:09:37;26.10;71.30
3408;DHT22;1717;50.240;8.406;2022-08-19T11:12:05;26.10;71.00
3408;DHT22;1717;50.240;8.406;2022-08-19T11:14:34;26.10;70.30
3408;DHT22;1717;50.240;8.406;2022-08-19T11:17:02;26.10;70.30
3408;DHT22;1717;50.240;8.406;2022-08-19T11:19:30;26.10;69.20
3408;DHT22;1717;50.240;8.406;2022-08-19T11:21:57;26.20;69.10
3408;DHT22;1717;50.240;8.406;2022-08-19T11:24:28;26.30;67.60
3408;DHT22;1717;50.240;8.406;2022-08-19T11:27:01;26.30;67.40
3408;DHT22;1717;50.240;8.406;2022-08-19T11:29:30;26.30;67.40
3408;DHT22;1717;50.240;8.406;2022-08-19T11:31:57;26.30;66.80
3408;DHT22;1717;50.240;8.406;2022-08-19T11:34:26;26.30;65.70
3408;DHT22;1717;50.240;8.406;2022-08-19T11:36:56;26.50;64.70
3408;DHT22;1717;50.240;8.406;2022-08-19T11:39:26;26.40;64.20
3408;DHT22;1717;50.240;8.406;2022-08-19T11:41:53;26.50;64.50
3408;DHT22;1717;50.240;8.406;2022-08-19T11:44:20;26.50;64.10
3408;DHT22;1717;50.240;8.406;2022-08-19T11:46:47;26.50;63.90
3408;DHT22;1717;50.240;8.406;2022-08-19T11:49:15;26.60;63.90
3408;DHT22;1717;50.240;8.406;2022-08-19T11:51:44;26.60;62.30
3408;DHT22;1717;50.240;8.406;2022-08-19T11:54:13;26.60;62.60
3408;DHT22;1717;50.240;8.406;2022-08-19T11:56:42;26.70;62.50
3408;DHT22;1717;50.240;8.406;2022-08-19T11:59:11;26.70;62.40
3408;DHT22;1717;50.240;8.406;2022-08-19T12:01:38;26.70;61.90
3408;DHT22;1717;50.240;8.406;2022-08-19T12:04:06;26.80;62.10
3408;DHT22;1717;50.240;8.406;2022-08-19T12:06:33;26.80;60.40
3408;DHT22;1717;50.240;8.406;2022-08-19T12:09:05;26.90;60.70
3408;DHT22;1717;50.240;8.406;2022-08-19T12:11:34;26.90;60.60
3408;DHT22;1717;50.240;8.406;2022-08-19T12:14:02;27.00;60.90
3408;DHT22;1717;50.240;8.406;2022-08-19T12:16:30;27.00;60.40
3408;DHT22;1717;50.240;8.406;2022-08-19T12:18:58;27.10;60.40
3408;DHT22;1717;50.240;8.406;2022-08-19T12:21:30;27.10;60.20
3408;DHT22;1717;50.240;8.406;2022-08-19T12:23:58;27.20;59.80
3408;DHT22;1717;50.240;8.406;2022-08-19T12:26:27;27.30;59.80
3408;DHT22;1717;50.240;8.406;2022-08-19T12:28:55;27.30;59.70
3408;DHT22;1717;50.240;8.406;2022-08-19T12:31:24;27.40;59.30
3408;DHT22;1717;50.240;8.406;2022-08-19T12:33:51;27.40;58.70
3408;DHT22;1717;50.240;8.406;2022-08-19T12:36:18;27.50;58.80
3408;DHT22;1717;50.240;8.406;2022-08-19T12:38:47;27.50;58.50
3408;DHT22;1717;50.240;8.406;2022-08-19T12:41:15;27.50;58.50
3408;DHT22;1717;50.240;8.406;2022-08-19T12:43:43;27.60;58.40
3408;DHT22;1717;50.240;8.406;2022-08-19T12:46:12;27.60;58.30
3408;DHT22;1717;50.240;8.406;2022-08-19T12:48:39;27.70;58.20
3408;DHT22;1717;50.240;8.406;2022-08-19T12:51:09;27.70;57.90
3408;DHT22;1717;50.240;8.406;2022-08-19T12:53:38;27.80;57.70
3408;DHT22;1717;50.240;8.406;2022-08-19T12:56:06;27.80;57.30
3408;DHT22;1717;50.240;8.406;2022-08-19T12:58:33;27.80;56.60
3408;DHT22;1717;50.240;8.406;2022-08-19T13:01:06;27.80;56.60
3408;DHT22;1717;50.240;8.406;2022-08-19T13:03:34;27.90;56.60
3408;DHT22;1717;50.240;8.406;2022-08-19T13:06:02;28.00;56.50
3408;DHT22;1717;50.240;8.406;2022-08-19T13:08:29;28.00;56.20
3408;DHT22;1717;50.240;8.406;2022-08-19T13:10:56;28.10;56.00
3408;DHT22;1717;50.240;8.406;2022-08-19T13:13:24;28.10;55.40
3408;DHT22;1717;50.240;8.406;2022-08-19T13:15:51;28.10;55.50
3408;DHT22;1717;50.240;8.406;2022-08-19T13:18:18;28.10;55.20
3408;DHT22;1717;50.240;8.406;2022-08-19T13:20:47;28.10;55.40
3408;DHT22;1717;50.240;8.406;2022-08-19T13:23:13;28.20;55.30
3408;DHT22;1717;50.240;8.406;2022-08-19T13:25:40;28.20;55.20
3408;DHT22;1717;50.240;8.406;2022-08-19T13:28:07;28.30;54.90
3408;DHT22;1717;50.240;8.406;2022-08-19T13:30:34;28.40;55.60
3408;DHT22;1717;50.240;8.406;2022-08-19T13:33:18;28.40;54.10
3408;DHT22;1717;50.240;8.406;2022-08-19T13:35:49;28.50;53.30
3408;DHT22;1717;50.240;8.406;2022-08-19T13:38:22;28.60;53.80
3408;DHT22;1717;50.240;8.406;2022-08-19T13:40:51;28.70;53.60
3408;DHT22;1717;50.240;8.406;2022-08-19T13:43:19;28.70;53.30
3408;DHT22;1717;50.240;8.406;2022-08-19T13:45:46;28.80;53.00
3408;DHT22;1717;50.240;8.406;2022-08-19T13:48:13;28.90;53.00
3408;DHT22;1717;50.240;8.406;2022-08-19T13:50:43;28.90;52.50
3408;DHT22;1717;50.240;8.406;2022-08-19T13:53:13;29.00;52.40
3408;DHT22;1717;50.240;8.406;2022-08-19T13:55:41;29.10;52.00
3408;DHT22;1717;50.240;8.406;2022-08-19T13:58:10;29.20;51.60
3408;DHT22;1717;50.240;8.406;2022-08-19T14:00:39;29.30;51.30
3408;DHT22;1717;50.240;8.406;2022-08-19T14:03:07;29.30;51.30
3408;DHT22;1717;50.240;8.406;2022-08-19T14:05:34;29.40;51.30
3408;DHT22;1717;50.240;8.406;2022-08-19T14:08:01;29.40;51.10
3408;DHT22;1717;50.240;8.406;2022-08-19T14:10:29;29.50;51.00
3408;DHT22;1717;50.240;8.406;2022-08-19T14:12:59;29.60;50.80
3408;DHT22;1717;50.240;8.406;2022-08-19T14:15:27;29.60;50.50
3408;DHT22;1717;50.240;8.406;2022-08-19T14:17:54;29.70;50.00
3408;DHT22;1717;50.240;8.406;2022-08-19T14:20:21;29.70;49.80
3408;DHT22;1717;50.240;8.406;2022-08-19T14:22:48;29.80;49.80
3408;DHT22;1717;50.240;8.406;2022-08-19T14:25:18;29.80;49.50
3408;DHT22;1717;50.240;8.406;2022-08-19T14:27:47;29.80;49.40
3408;DHT22;1717;50.240;8.406;2022-08-19T14:30:17;29.90;49.20
3408;DHT22;1717;50.240;8.406;2022-08-19T14:32:44;30.00;49.00
3408;DHT22;1717;50.240;8.406;2022-08-19T14:35:12;30.00;48.70
3408;DHT22;1717;50.240;8.406;2022-08-19T14:37:41;30.00;48.80
3408;DHT22;1717;50.240;8.406;2022-08-19T14:40:10;30.10;48.90
3408;DHT22;1717;50.240;8.406;2022-08-19T14:42:38;30.10;48.90
3408;DHT22;1717;50.240;8.406;2022-08-19T14:45:07;30.10;48.70
3408;DHT22;1717;50.240;8.406;2022-08-19T14:47:35;30.20;48.80
3408;DHT22;1717;50.240;8.406;2022-08-19T14:50:05;30.20;48.70
3408;DHT22;1717;50.240;8.406;2022-08-19T14:52:32;30.30;48.30
3408;DHT22;1717;50.240;8.406;2022-08-19T14:54:59;30.30;48.20
3408;DHT22;1717;50.240;8.406;2022-08-19T14:57:26;30.30;48.00
3408;DHT22;1717;50.240;8.406;2022-08-19T14:59:53;30.30;47.80
3408;DHT22;1717;50.240;8.406;2022-08-19T15:02:21;30.30;47.80
3408;DHT22;1717;50.240;8.406;2022-08-19T15:04:48;30.30;47.60
3408;DHT22;1717;50.240;8.406;2022-08-19T15:07:15;30.30;47.10
3408;DHT22;1717;50.240;8.406;2022-08-19T15:09:42;30.40;47.50
3408;DHT22;1717;50.240;8.406;2022-08-19T15:12:09;30.40;47.30
3408;DHT22;1717;50.240;8.406;2022-08-19T15:14:36;30.40;47.30
3408;DHT22;1717;50.240;8.406;2022-08-19T15:17:04;30.40;46.70
3408;DHT22;1717;50.240;8.406;2022-08-19T15:19:32;30.40;46.80
3408;DHT22;1717;50.240;8.406;2022-08-19T15:22:01;30.40;46.30
3408;DHT22;1717;50.240;8.406;2022-08-19T15:24:28;30.40;46.40
3408;DHT22;1717;50.240;8.406;2022-08-19T15:26:55;30.40;45.60
3408;DHT22;1717;50.240;8.406;2022-08-19T15:29:23;30.40;45.90
3408;DHT22;1717;50.240;8.406;2022-08-19T15:31:51;30.40;46.00
3408;DHT22;1717;50.240;8.406;2022-08-19T15:34:20;30.40;46.00
3408;DHT22;1717;50.240;8.406;2022-08-19T15:36:49;30.40;46.20
3408;DHT22;1717;50.240;8.406;2022-08-19T15:39:15;30.40;46.30
3408;DHT22;1717;50.240;8.406;2022-08-19T15:41:44;30.40;46.40
3408;DHT22;1717;50.240;8.406;2022-08-19T15:44:13;30.40;46.10
3408;DHT22;1717;50.240;8.406;2022-08-19T15:46:42;30.40;45.70
3408;DHT22;1717;50.240;8.406;2022-08-19T15:49:10;30.40;45.70
3408;DHT22;1717;50.240;8.406;2022-08-19T15:51:39;30.40;45.70
3408;DHT22;1717;50.240;8.406;2022-08-19T15:54:11;30.40;45.70
3408;DHT22;1717;50.240;8.406;2022-08-19T15:56:38;30.40;45.70
3408;DHT22;1717;50.240;8.406;2022-08-19T15:59:32;30.40;45.60
3408;DHT22;1717;50.240;8.406;2022-08-19T16:02:19;30.40;45.60
3408;DHT22;1717;50.240;8.406;2022-08-19T16:05:06;30.30;44.20
3408;DHT22;1717;50.240;8.406;2022-08-19T16:07:51;30.30;44.50
3408;DHT22;1717;50.240;8.406;2022-08-19T16:10:20;30.30;44.60
3408;DHT22;1717;50.240;8.406;2022-08-19T16:12:47;30.20;44.60